Home > Products > Valid Products > MTR

000
SAUS44 KLZK 262354
MTRMWT
METAR KMWT 262353Z AUTO 10006KT 10SM CLR 22/15 A2974 RMK AO2 SLP068
T02170150 10261 20217 53005 $





000
SAUS44 KLZK 262254
MTRMWT
METAR KMWT 262253Z AUTO VRB06KT 10SM CLR 23/16 A2974 RMK AO2 SLP064
T02330156 $





000
SAUS44 KLZK 262254
MTRMWT
METAR KMWT 262253Z AUTO VRB06KT 10SM CLR 23/16 A2974 RMK AO2 SLP064
T02330156 $





000
SAUS44 KLZK 262155
MTRMWT
METAR KMWT 262153Z AUTO VRB05KT 10SM CLR 25/16 A2973 RMK AO2 SLP061
T02500156 $





000
SAUS44 KLZK 262155
MTRMWT
METAR KMWT 262153Z AUTO VRB05KT 10SM CLR 25/16 A2973 RMK AO2 SLP061
T02500156 $





000
SAUS44 KLZK 262054
MTRMWT
METAR KMWT 262053Z AUTO VRB04KT 10SM CLR 26/16 A2973 RMK AO2 SLP060
T02560156 58015 $





000
SAUS44 KLZK 262054
MTRMWT
METAR KMWT 262053Z AUTO VRB04KT 10SM CLR 26/16 A2973 RMK AO2 SLP060
T02560156 58015 $





000
SAUS44 KLZK 261954
MTRMWT
METAR KMWT 261953Z AUTO VRB04KT 10SM CLR 26/16 A2975 RMK AO2 SLP068
T02560156 $





000
SAUS44 KLZK 261855
MTRMWT
METAR KMWT 261853Z AUTO 00000KT 10SM CLR 25/16 A2976 RMK AO2 SLP069
T02500156 $





000
SAUS44 KLZK 261855
MTRMWT
METAR KMWT 261853Z AUTO 00000KT 10SM CLR 25/16 A2976 RMK AO2 SLP069
T02500156 $





000
SAUS44 KLZK 261754
MTRMWT
METAR KMWT 261753Z AUTO VRB04KT 10SM CLR 23/15 A2977 RMK AO2 SLP075
T02330150 10233 20111 58002 $





000
SAUS44 KLZK 261754
MTRMWT
METAR KMWT 261753Z AUTO VRB04KT 10SM CLR 23/15 A2977 RMK AO2 SLP075
T02330150 10233 20111 58002 $





000
SAUS44 KLZK 261655
MTRMWT
METAR KMWT 261653Z AUTO VRB03KT 10SM CLR 22/15 A2978 RMK AO2 SLP078
T02220150 $





000
SAUS44 KLZK 261655
MTRMWT
METAR KMWT 261653Z AUTO VRB03KT 10SM CLR 22/15 A2978 RMK AO2 SLP078
T02220150 $





000
SAUS44 KLZK 261554
MTRMWT
METAR KMWT 261553Z AUTO VRB05KT 10SM CLR 22/14 A2978 RMK AO2 SLP077
T02170139 $





000
SAUS44 KLZK 261554
MTRMWT
METAR KMWT 261553Z AUTO VRB05KT 10SM CLR 22/14 A2978 RMK AO2 SLP077
T02170139 $





000
SAUS44 KLZK 261454
MTRMWT
METAR KMWT 261453Z AUTO VRB03KT 10SM CLR 19/13 A2978 RMK AO2 SLP078
T01940133 51017 $





000
SAUS44 KLZK 261354
MTRMWT
METAR KMWT 261353Z AUTO 00000KT 10SM CLR 18/14 A2976 RMK AO2 SLP071
T01830139 $





000
SAUS44 KLZK 261354
MTRMWT
METAR KMWT 261353Z AUTO 00000KT 10SM CLR 18/14 A2976 RMK AO2 SLP071
T01830139 $





000
SAUS44 KLZK 261254
MTRMWT
METAR KMWT 261253Z AUTO 00000KT 10SM CLR 13/11 A2975 RMK AO2 SLP067
T01280111 $





000
SAUS44 KLZK 261254
MTRMWT
METAR KMWT 261253Z AUTO 00000KT 10SM CLR 13/11 A2975 RMK AO2 SLP067
T01280111 $





000
SAUS44 KLZK 261154
MTRMWT
METAR KMWT 261153Z AUTO 00000KT 9SM CLR 11/10 A2973 RMK AO2 SLP059
T01110100 10150 20111 53019 $





000
SAUS44 KLZK 261154
MTRMWT
METAR KMWT 261153Z AUTO 00000KT 9SM CLR 11/10 A2973 RMK AO2 SLP059
T01110100 10150 20111 53019 $





000
SAUS44 KLZK 261054
MTRMWT
METAR KMWT 261053Z AUTO 00000KT 10SM CLR 12/10 A2970 RMK AO2 SLP051
T01170100 $





000
SAUS44 KLZK 261054
MTRMWT
METAR KMWT 261053Z AUTO 00000KT 10SM CLR 12/10 A2970 RMK AO2 SLP051
T01170100 $





000
SAUS44 KLZK 260954
MTRMWT
METAR KMWT 260953Z AUTO 00000KT 10SM CLR 12/10 A2968 RMK AO2 SLP043
T01170100 $





000
SAUS44 KLZK 260854
MTRMWT
METAR KMWT 260853Z AUTO 00000KT 10SM CLR 13/11 A2967 RMK AO2 SLP039
T01280111 51003 $





000
SAUS44 KLZK 260854
MTRMWT
METAR KMWT 260853Z AUTO 00000KT 10SM CLR 13/11 A2967 RMK AO2 SLP039
T01280111 51003 $





000
SAUS44 KLZK 260754
MTRMWT
METAR KMWT 260753Z AUTO 00000KT 10SM CLR 14/11 A2967 RMK AO2 SLP037
T01390111 $





000
SAUS44 KLZK 260654
MTRMWT
METAR KMWT 260653Z AUTO VRB04KT 10SM CLR 14/12 A2967 RMK AO2 SLP039
T01440117 $





000
SAUS44 KLZK 260654
MTRMWT
METAR KMWT 260653Z AUTO VRB04KT 10SM CLR 14/12 A2967 RMK AO2 SLP039
T01440117 $





000
SAUS44 KLZK 260554
MTRMWT
METAR KMWT 260553Z AUTO 00000KT 10SM CLR 15/12 A2966 RMK AO2 SLP036
T01500117 10272 20150 403000150 51007 $





000
SAUS44 KLZK 260554
MTRMWT
METAR KMWT 260553Z AUTO 00000KT 10SM CLR 15/12 A2966 RMK AO2 SLP036
T01500117 10272 20150 403000150 51007 $





000
SAUS44 KLZK 260455
MTRMWT
METAR KMWT 260453Z AUTO 00000KT 10SM CLR 16/11 A2966 RMK AO2 SLP036
T01610111 $





000
SAUS44 KLZK 260354
MTRMWT
METAR KMWT 260353Z AUTO 00000KT 10SM CLR 18/11 A2966 RMK AO2 SLP034
T01780111 $





000
SAUS44 KLZK 260254
MTRMWT
METAR KMWT 260253Z AUTO 00000KT 10SM CLR 18/12 A2964 RMK AO2 SLP029
T01830117 52018 $





000
SAUS44 KLZK 260154
MTRMWT
METAR KMWT 260153Z AUTO VRB03KT 10SM CLR 21/11 A2962 RMK AO2 SLP021
T02110111 $





000
SAUS44 KLZK 260054
MTRMWT
METAR KMWT 260053Z AUTO 00000KT 10SM CLR 24/11 A2961 RMK AO2 SLP017
T02390106 $





000
SAUS44 KLZK 252354
MTRMWT
METAR KMWT 252353Z AUTO 00000KT 10SM CLR 28/09 A2958 RMK AO2 SLP008
T02780094 10300 20261 53002 $





000
SAUS44 KLZK 252354
MTRMWT
METAR KMWT 252353Z AUTO 00000KT 10SM CLR 28/09 A2958 RMK AO2 SLP008
T02780094 10300 20261 53002 $





000
SAUS44 KLZK 252254
MTRMWT
METAR KMWT 252253Z AUTO VRB04KT 10SM CLR 29/08 A2958 RMK AO2 SLP006
T02940083 $





000
SAUS44 KLZK 252254
MTRMWT
METAR KMWT 252253Z AUTO VRB04KT 10SM CLR 29/08 A2958 RMK AO2 SLP006
T02940083 $





000
SAUS44 KLZK 252157 COR
MTRMWT
METAR KMWT 252153Z AUTO 27007KT 240V350 10SM CLR 29/09 A2957 RMK AO2
SLP004 T02940089 $





000
SAUS44 KLZK 252054
MTRMWT
METAR KMWT 252053Z AUTO 10SM CLR 29/09 A2958 RMK AO2 SLP006
T02940089 56010 $





000
SAUS44 KLZK 251954
MTRMWT
METAR KMWT 251953Z AUTO VRB03KT 10SM CLR 29/11 A2959 RMK AO2 SLP009
T02890111 $





000
SAUS44 KLZK 251954
MTRMWT
METAR KMWT 251953Z AUTO VRB03KT 10SM CLR 29/11 A2959 RMK AO2 SLP009
T02890111 $





000
SAUS44 KLZK 251854
MTRMWT
METAR KMWT 251853Z AUTO 30004KT 10SM CLR 28/12 A2960 RMK AO2 SLP014
T02780122 $





000
SAUS44 KLZK 251754
MTRMWT
METAR KMWT 251753Z AUTO VRB06KT 10SM FEW004 26/13 A2961 RMK AO2
SLP018 T02610133 10267 20161 56013 $





000
SAUS44 KLZK 251754
MTRMWT
METAR KMWT 251753Z AUTO VRB06KT 10SM FEW004 26/13 A2961 RMK AO2
SLP018 T02610133 10267 20161 56013 $





000
SAUS44 KLZK 251744
MTRMWT
SPECI KMWT 251743Z AUTO VRB05KT 10SM FEW004 27/14 A2961 RMK AO2
T02670144 $





000
SAUS44 KLZK 251655
MTRMWT
METAR KMWT 251653Z AUTO VRB05KT 10SM CLR 25/13 A2962 RMK AO2 SLP021
T02500133 $





000
SAUS44 KLZK 251602
MTRMWT
SPECI KMWT 251600Z AUTO VRB05KT 10SM FEW003 23/14 A2964 RMK AO2
T02280139 $





000
SAUS44 KLZK 251554
MTRMWT
METAR KMWT 251553Z AUTO VRB06KT 10SM CLR 23/16 A2964 RMK AO2 SLP029
T02280156 $





000
SAUS44 KLZK 251542
MTRMWT
SPECI KMWT 251541Z AUTO VRB04KT 10SM FEW002 22/16 A2964 RMK AO2
T02220156 $





000
SAUS44 KLZK 251454
MTRMWT
METAR KMWT 251453Z AUTO VRB03KT 10SM CLR 21/16 A2965 RMK AO2 SLP034
T02110161 53005 $





000
SAUS44 KLZK 251354
MTRMWT
METAR KMWT 251353Z AUTO VRB06KT 10SM CLR 19/15 A2963 RMK AO2 SLP028
T01890150 $





000
SAUS44 KLZK 251254
MTRMWT
METAR KMWT 251253Z AUTO 00000KT 10SM CLR 17/15 A2964 RMK AO2 SLP033
T01720150 $





000
SAUS44 KLZK 251155
MTRMWT
METAR KMWT 251153Z AUTO 00000KT 10SM CLR 17/14 A2963 RMK AO2 SLP030
70176 T01670144 10172 20150 57002 $





000
SAUS44 KLZK 251155
MTRMWT
METAR KMWT 251153Z AUTO 00000KT 10SM CLR 17/14 A2963 RMK AO2 SLP030
70176 T01670144 10172 20150 57002 $





000
SAUS44 KLZK 251055
MTRMWT
METAR KMWT 251053Z AUTO VRB03KT 10SM CLR 17/15 A2964 RMK AO2 SLP031
T01670150 $





000
SAUS44 KLZK 251055
MTRMWT
METAR KMWT 251053Z AUTO VRB03KT 10SM CLR 17/15 A2964 RMK AO2 SLP031
T01670150 $





000
SAUS44 KLZK 250954
MTRMWT
METAR KMWT 250953Z AUTO 00000KT 10SM CLR 16/15 A2964 RMK AO2 SLP032
T01610150 $





000
SAUS44 KLZK 250954
MTRMWT
METAR KMWT 250953Z AUTO 00000KT 10SM CLR 16/15 A2964 RMK AO2 SLP032
T01610150 $





000
SAUS44 KLZK 250934
MTRMWT
SPECI KMWT 250933Z AUTO VRB03KT 10SM SCT011 17/16 A2964 RMK AO2
T01670156 $





000
SAUS44 KLZK 250934
MTRMWT
SPECI KMWT 250933Z AUTO VRB03KT 10SM SCT011 17/16 A2964 RMK AO2
T01670156 $





000
SAUS44 KLZK 250854
MTRMWT
METAR KMWT 250853Z AUTO 00000KT 10SM OVC011 17/16 A2964 RMK AO2
SLP033 T01670156 55011 $





000
SAUS44 KLZK 250835
MTRMWT
SPECI KMWT 250834Z AUTO 00000KT 10SM BKN010 16/15 A2963 RMK AO2
T01610150 $





000
SAUS44 KLZK 250835
MTRMWT
SPECI KMWT 250834Z AUTO 00000KT 10SM BKN010 16/15 A2963 RMK AO2
T01610150 $





000
SAUS44 KLZK 250754
MTRMWT
METAR KMWT 250753Z AUTO 00000KT 10SM FEW013 17/15 A2964 RMK AO2
SLP031 T01670150 $





000
SAUS44 KLZK 250754
MTRMWT
METAR KMWT 250753Z AUTO 00000KT 10SM FEW013 17/15 A2964 RMK AO2
SLP031 T01670150 $





000
SAUS44 KLZK 250735
MTRMWT
SPECI KMWT 250734Z AUTO VRB04KT 4SM BR FEW001 16/15 A2965 RMK AO2
T01610150 $





000
SAUS44 KLZK 250734
MTRMWT
SPECI KMWT 250732Z AUTO VRB03KT 1 1/4SM BR FEW001 16/15 A2965 RMK
AO2 VIS 1/4V5 T01560150 $





000
SAUS44 KLZK 250722
MTRMWT
SPECI KMWT 250721Z AUTO 00000KT 3/4SM BR VV001 16/15 A2965 RMK AO2
VIS 1/4V2 T01560150 $





000
SAUS44 KLZK 250655
MTRMWT
METAR KMWT 250653Z AUTO 00000KT 1SM BR FEW002 SCT010 16/16 A2966 RMK
AO2 VIS 1/2V5 SLP041 T01560156 $





000
SAUS44 KLZK 250646
MTRMWT
SPECI KMWT 250645Z AUTO 00000KT 1 1/4SM BR FEW002 SCT010 16/16 A2967
RMK AO2 VIS 1/2V4 T01560156 $





000
SAUS44 KLZK 250639
MTRMWT
SPECI KMWT 250638Z AUTO 00000KT 2 1/2SM BR FEW002 SCT010 SCT014
16/16 A2967 RMK AO2 VIS 3/4V5 T01610156 $





000
SAUS44 KLZK 250639
MTRMWT
SPECI KMWT 250638Z AUTO 00000KT 2 1/2SM BR FEW002 SCT010 SCT014
16/16 A2967 RMK AO2 VIS 3/4V5 T01610156 $





000
SAUS44 KLZK 250613
MTRMWT
SPECI KMWT 250611Z AUTO 00000KT 8SM BKN011 17/16 A2967 RMK AO2
T01670156 $





000
SAUS44 KLZK 250555
MTRMWT
METAR KMWT 250553Z AUTO VRB03KT 10SM OVC009 17/17 A2967 RMK AO2 CIG
007V012 SLP044 60053 T01720172 10183 20161 401830106 $





000
SAUS44 KLZK 250555
MTRMWT
METAR KMWT 250553Z AUTO VRB03KT 10SM OVC009 17/17 A2967 RMK AO2 CIG
007V012 SLP044 60053 T01720172 10183 20161 401830106 $





000
SAUS44 KLZK 250503
MTRMWT
SPECI KMWT 250502Z AUTO 19003KT 10SM BKN012 17/17 A2966 RMK AO2
T01670167 $





000
SAUS44 KLZK 250454
MTRMWT
METAR KMWT 250453Z AUTO 00000KT 10SM SCT014 17/17 A2966 RMK AO2
SLP041 P0000 T01720172 $





000
SAUS44 KLZK 250355
MTRMWT
METAR KMWT 250353Z AUTO 09007G19KT 7SM -RA BKN009 BKN060 OVC110
17/16 A2966 RMK AO2 PRESFR SLP040 P0011 T01670161 $





000
SAUS44 KLZK 250254
MTRMWT
METAR KMWT 250253Z AUTO 00000KT 3SM RA BR OVC008 16/16 A2973 RMK AO2
RAB31 SLP063 P0003 60042 T01610161 55021 $





000
SAUS44 KLZK 250254
MTRMWT
METAR KMWT 250253Z AUTO 00000KT 3SM RA BR OVC008 16/16 A2973 RMK AO2
RAB31 SLP063 P0003 60042 T01610161 55021 $





000
SAUS44 KLZK 250220
MTRMWT
SPECI KMWT 250218Z AUTO 13003KT 10SM BKN009 BKN120 16/16 A2970 RMK
AO2 T01610161 $





000
SAUS44 KLZK 250154
MTRMWT
METAR KMWT 250153Z AUTO 13005KT 10SM FEW006 16/16 A2969 RMK AO2
RAE46 SLP052 P0007 T01610161 $





000
SAUS44 KLZK 250151
MTRMWT
SPECI KMWT 250149Z AUTO 14006KT 10SM SCT004 16/16 A2970 RMK AO2
RAE46 P0007 $





000
SAUS44 KLZK 250151
MTRMWT
SPECI KMWT 250149Z AUTO 14006KT 10SM SCT004 16/16 A2970 RMK AO2
RAE46 P0007 $





000
SAUS44 KLZK 250118
MTRMWT
SPECI KMWT 250117Z AUTO 12007KT 7SM -RA BKN003 BKN045 OVC080 16/16
A2971 RMK AO2 P0005 T01610161 $





000
SAUS44 KLZK 250059
MTRMWT
SPECI KMWT 250057Z AUTO VRB04KT 3SM RA BR SCT005 BKN037 OVC050 16/16
A2977 RMK AO2 PRESFR P0001 T01610161 $





000
SAUS44 KLZK 250054
MTRMWT
METAR KMWT 250053Z AUTO 10003KT 2 1/2SM +RA BR BKN005 BKN035 OVC049
16/16 A2979 RMK AO2 SLP085 P0032 T01610161 $





000
SAUS44 KLZK 250045
MTRMWT
SPECI KMWT 250044Z AUTO 00000KT 1SM +RA BR BKN005 BKN037 OVC049
16/16 A2981 RMK AO2 P0020 T01610161 $





000
SAUS44 KLZK 250045
MTRMWT
SPECI KMWT 250044Z AUTO 00000KT 1SM +RA BR BKN005 BKN037 OVC049
16/16 A2981 RMK AO2 P0020 T01610161 $





000
SAUS44 KLZK 250035
MTRMWT
SPECI KMWT 250034Z AUTO VRB03KT 2 1/2SM +RA BR SCT005 OVC048 16/16
A2980 RMK AO2 P0007 T01610161 $





000
SAUS44 KLZK 250035
MTRMWT
SPECI KMWT 250034Z AUTO VRB03KT 2 1/2SM +RA BR SCT005 OVC048 16/16
A2980 RMK AO2 P0007 T01610161 $





000
SAUS44 KLZK 250010
MTRMWT
SPECI KMWT 250006Z AUTO 00000KT 9SM -RA BKN005 OVC037 16/16 A2978
RMK AO2 P0002 T01610161 $





000
SAUS44 KLZK 250010
MTRMWT
SPECI KMWT 250006Z AUTO 00000KT 9SM -RA BKN005 OVC037 16/16 A2978
RMK AO2 P0002 T01610161 $





000
SAUS44 KLZK 250000
MTRMWT
SPECI KMWT 242359Z AUTO 09003KT 3SM -RA BR SCT005 OVC037 16/16 A2978
RMK AO2 P0001 T01610161 $





000
SAUS44 KLZK 250000
MTRMWT
SPECI KMWT 242359Z AUTO 09003KT 3SM -RA BR SCT005 OVC037 16/16 A2978
RMK AO2 P0001 T01610161 $





000
SAUS44 KLZK 242354
MTRMWT
METAR KMWT 242353Z AUTO VRB03KT 1 1/2SM +RA BR FEW006 OVC037 16/16
A2979 RMK AO2 SLP084 P0029 60109 T01610161 10167 20156 55010 $





000
SAUS44 KLZK 242354
MTRMWT
METAR KMWT 242353Z AUTO VRB03KT 1 1/2SM +RA BR FEW006 OVC037 16/16
A2979 RMK AO2 SLP084 P0029 60109 T01610161 10167 20156 55010 $





000
SAUS44 KLZK 242351
MTRMWT
SPECI KMWT 242350Z AUTO VRB04KT 1 1/2SM +RA BR FEW006 OVC037 16/16
A2978 RMK AO2 P0027 $





000
SAUS44 KLZK 242340
MTRMWT
SPECI KMWT 242338Z AUTO 00000KT 1 3/4SM +RA BR SCT004 BKN029 OVC080
16/16 A2979 RMK AO2 P0019 T01610161 $





000
SAUS44 KLZK 242340
MTRMWT
SPECI KMWT 242338Z AUTO 00000KT 1 3/4SM +RA BR SCT004 BKN029 OVC080
16/16 A2979 RMK AO2 P0019 T01610161 $





000
SAUS44 KLZK 242333
MTRMWT
SPECI KMWT 242330Z AUTO 13003KT 2 1/2SM RA BR SCT004 BKN032 OVC075
16/16 A2979 RMK AO2 P0015 T01610161 $





000
SAUS44 KLZK 242315
MTRMWT
SPECI KMWT 242314Z AUTO 00000KT 1 1/2SM RA BR BKN003 OVC027 16/16
A2980 RMK AO2 VIS 1V2 1/2 P0008 T01610161





000
SAUS44 KLZK 242300
MTRMWT
SPECI KMWT 242259Z AUTO 00000KT 2 1/2SM RA BR BKN003 BKN044 OVC090
16/16 A2979 RMK AO2 VIS 1 3/4V3 P0002 T01610161





000
SAUS44 KLZK 242300
MTRMWT
SPECI KMWT 242259Z AUTO 00000KT 2 1/2SM RA BR BKN003 BKN044 OVC090
16/16 A2979 RMK AO2 VIS 1 3/4V3 P0002 T01610161





000
SAUS44 KLZK 242255
MTRMWT
METAR KMWT 242253Z AUTO 00000KT 3SM RA BR SCT003 BKN033 OVC090 16/16
A2978 RMK AO2 SLP081 P0035 T01610161





000
SAUS44 KLZK 242255
MTRMWT
METAR KMWT 242253Z AUTO 00000KT 3SM RA BR SCT003 BKN033 OVC090 16/16
A2978 RMK AO2 SLP081 P0035 T01610161





000
SAUS44 KLZK 242251
MTRMWT
SPECI KMWT 242249Z AUTO 11004KT 2SM RA BR FEW005 BKN031 OVC090 16/16
A2978 RMK AO2 P0034





000
SAUS44 KLZK 242239
MTRMWT
SPECI KMWT 242238Z AUTO 09004KT 1SM +RA BR SCT003 SCT007 OVC029
16/16 A2979 RMK AO2 PRESFR P0029 T01610161





000
SAUS44 KLZK 242230
MTRMWT
SPECI KMWT 242229Z AUTO 00000KT 1/2SM +RA FG SCT004 OVC010 16/16
A2984 RMK AO2 P0015 T01610161





000
SAUS44 KLZK 242230
MTRMWT
SPECI KMWT 242229Z AUTO 00000KT 1/2SM +RA FG SCT004 OVC010 16/16
A2984 RMK AO2 P0015 T01610161





000
SAUS44 KLZK 242210
MTRMWT
SPECI KMWT 242209Z AUTO 00000KT 1 3/4SM RA BR FEW004 BKN008 OVC043
17/17 A2982 RMK AO2 P0006 T01670167





000
SAUS44 KLZK 242154
MTRMWT
METAR KMWT 242153Z AUTO 00000KT 2SM +RA BR SCT006 BKN039 OVC048
17/17 A2982 RMK AO2 SLP095 P0010 T01670167





000
SAUS44 KLZK 242141
MTRMWT
SPECI KMWT 242140Z AUTO 00000KT 5SM -RA BR SCT006 BKN041 OVC055
17/17 A2982 RMK AO2 P0005 T01670167





000
SAUS44 KLZK 242131
MTRMWT
SPECI KMWT 242130Z AUTO 00000KT 2 1/2SM +RA BR BKN005 BKN037 OVC055
17/17 A2982 RMK AO2 P0003 T01670167





000
SAUS44 KLZK 242131
MTRMWT
SPECI KMWT 242130Z AUTO 00000KT 2 1/2SM +RA BR BKN005 BKN037 OVC055
17/17 A2982 RMK AO2 P0003 T01670167





000
SAUS44 KLZK 242125
MTRMWT
SPECI KMWT 242124Z AUTO 00000KT 7SM -RA SCT005 BKN050 OVC055 17/17
A2982 RMK AO2 P0001 T01670167





000
SAUS44 KLZK 242110
MTRMWT
SPECI KMWT 242109Z AUTO VRB04KT 9SM -RA SCT004 BKN008 OVC060 17/17
A2982 RMK AO2 P0001 T01670167





000
SAUS44 KLZK 242054
MTRMWT
METAR KMWT 242053Z AUTO VRB03KT 5SM -RA BR BKN003 BKN008 OVC049
16/16 A2983 RMK AO2 PRESFR SLP099 P0010 60035 T01610161 58024





000
SAUS44 KLZK 242054
MTRMWT
METAR KMWT 242053Z AUTO VRB03KT 5SM -RA BR BKN003 BKN008 OVC049
16/16 A2983 RMK AO2 PRESFR SLP099 P0010 60035 T01610161 58024





000
SAUS44 KLZK 241954
MTRMWT
METAR KMWT 241953Z AUTO 00000KT 7SM -RA BKN004 BKN038 OVC060 16/16
A2986 RMK AO2 SLP111 P0018 T01610161





000
SAUS44 KLZK 241954
MTRMWT
METAR KMWT 241953Z AUTO 00000KT 7SM -RA BKN004 BKN038 OVC060 16/16
A2986 RMK AO2 SLP111 P0018 T01610161





000
SAUS44 KLZK 241941
MTRMWT
SPECI KMWT 241940Z AUTO 00000KT 4SM -RA BR BKN004 BKN036 OVC060
16/16 A2987 RMK AO2 P0017 T01560156





000
SAUS44 KLZK 241934
MTRMWT
SPECI KMWT 241933Z AUTO 00000KT 2 1/2SM -RA BR BKN003 OVC038 16/16
A2989 RMK AO2 P0016 T01560156





000
SAUS44 KLZK 241918
MTRMWT
SPECI KMWT 241917Z AUTO 00000KT 1 1/2SM +RA BR SCT003 BKN040 OVC055
16/15 A2989 RMK AO2 P0008 T01560150





000
SAUS44 KLZK 241911
MTRMWT
SPECI KMWT 241910Z AUTO 32004KT 2SM +RA BR SCT005 BKN045 OVC055
16/14 A2988 RMK AO2 P0005 T01560144





000
SAUS44 KLZK 241854
MTRMWT
METAR KMWT 241853Z AUTO 00000KT 3SM RA BR SCT003 OVC060 16/15 A2988
RMK AO2 SLP117 P0007 T01560150





000
SAUS44 KLZK 241827
MTRMWT
SPECI KMWT 241826Z AUTO 11004KT 9SM -RA FEW003 OVC070 16/15 A2986
RMK AO2 P0005 T01560150





000
SAUS44 KLZK 241754
MTRMWT
METAR KMWT 241753Z AUTO 00000KT 4SM RA BR BKN070 OVC085 16/14 A2990
RMK AO2 SLP124 P0006 60014 T01560144 10161 20128 58008





000
SAUS44 KLZK 241716
MTRMWT
SPECI KMWT 241715Z AUTO 00000KT 4SM -RA BR SCT009 BKN040 OVC085
16/15 A2991 RMK AO2 P0002 T01610150





000
SAUS44 KLZK 241716
MTRMWT
SPECI KMWT 241715Z AUTO 00000KT 4SM -RA BR SCT009 BKN040 OVC085
16/15 A2991 RMK AO2 P0002 T01610150





000
SAUS44 KLZK 241704
MTRMWT
SPECI KMWT 241703Z AUTO VRB03KT 5SM -RA BR FEW011 BKN065 OVC085
16/14 A2992 RMK AO2 P0001 T01560144





000
SAUS44 KLZK 241654
MTRMWT
METAR KMWT 241653Z AUTO 15003KT 3SM RA BR BKN012 BKN039 OVC070 16/14
A2993 RMK AO2 SLP135 P0005 T01560144





000
SAUS44 KLZK 241654
MTRMWT
METAR KMWT 241653Z AUTO 15003KT 3SM RA BR BKN012 BKN039 OVC070 16/14
A2993 RMK AO2 SLP135 P0005 T01560144





000
SAUS44 KLZK 241613
MTRMWT
SPECI KMWT 241612Z AUTO 00000KT 10SM -RA BKN011 OVC017 14/13 A2995
RMK AO2 P0000 T01440128





000
SAUS44 KLZK 241554
MTRMWT
METAR KMWT 241553Z AUTO 00000KT 6SM -RA BR OVC015 14/13 A2995 RMK
AO2 RAB22 SLP141 P0003 T01440128





000
SAUS44 KLZK 241508
MTRMWT
SPECI KMWT 241507Z AUTO 14003KT 10SM BKN012 OVC100 14/12 A2994 RMK
AO2 T01440122





000
SAUS44 KLZK 241508
MTRMWT
SPECI KMWT 241507Z AUTO 14003KT 10SM BKN012 OVC100 14/12 A2994 RMK
AO2 T01440122





000
SAUS44 KLZK 241454
MTRMWT
METAR KMWT 241453Z AUTO 12004KT 10SM SCT012 BKN100 14/12 A2992 RMK
AO2 SLP132 60000 T01440117 58007





000
SAUS44 KLZK 241420
MTRMWT
SPECI KMWT 241418Z AUTO VRB04KT 10SM OVC013 14/11 A2993 RMK AO2
PRESFR T01390111





000
SAUS44 KLZK 241354
MTRMWT
METAR KMWT 241353Z AUTO 10SM OVC015 14/11 A2996 RMK AO2 RAE06 SLP144
P0000 T01390106





000
SAUS44 KLZK 241354
MTRMWT
METAR KMWT 241353Z AUTO 10SM OVC015 14/11 A2996 RMK AO2 RAE06 SLP144
P0000 T01390106





000
SAUS44 KLZK 241254
MTRMWT
METAR KMWT 241253Z AUTO 00000KT 10SM -RA OVC024 13/09 A2996 RMK AO2
RAB44 SLP144 P0000 T01330094





000
SAUS44 KLZK 241155
MTRMWT
METAR KMWT 241153Z AUTO 00000KT 10SM OVC028 13/11 A2995 RMK AO2
SLP140 70006 T01280106 10133 20106 57003





000
SAUS44 KLZK 241055
MTRMWT
METAR KMWT 241053Z AUTO 00000KT 10SM OVC023 13/10 A2995 RMK AO2
SLP141 T01280100





000
SAUS44 KLZK 241055
MTRMWT
METAR KMWT 241053Z AUTO 00000KT 10SM OVC023 13/10 A2995 RMK AO2
SLP141 T01280100





000
SAUS44 KLZK 240954
MTRMWT
METAR KMWT 240953Z AUTO 00000KT 10SM OVC023 12/10 A2995 RMK AO2
SLP140 T01220100





000
SAUS44 KLZK 240854
MTRMWT
METAR KMWT 240853Z AUTO 00000KT 10SM OVC028 11/09 A2996 RMK AO2
SLP143 T01110094 55008





000
SAUS44 KLZK 240840
MTRMWT
SPECI KMWT 240839Z AUTO 00000KT 10SM BKN026 11/09 A2996 RMK AO2
T01110094





000
SAUS44 KLZK 240754
MTRMWT
METAR KMWT 240753Z AUTO 00000KT 10SM CLR 11/09 A2994 RMK AO2 SLP139
T01110094





000
SAUS44 KLZK 240754
MTRMWT
METAR KMWT 240753Z AUTO 00000KT 10SM CLR 11/09 A2994 RMK AO2 SLP139
T01110094





000
SAUS44 KLZK 240742
MTRMWT
SPECI KMWT 240741Z AUTO 00000KT 10SM SCT022 11/09 A2996 RMK AO2
T01060094





000
SAUS44 KLZK 240742
MTRMWT
SPECI KMWT 240741Z AUTO 00000KT 10SM SCT022 11/09 A2996 RMK AO2
T01060094





000
SAUS44 KLZK 240716
MTRMWT
SPECI KMWT 240715Z AUTO 00000KT 10SM BKN022 11/09 A2997 RMK AO2
T01060094





000
SAUS44 KLZK 240716
MTRMWT
SPECI KMWT 240715Z AUTO 00000KT 10SM BKN022 11/09 A2997 RMK AO2
T01060094





000
SAUS44 KLZK 240655
MTRMWT
METAR KMWT 240653Z AUTO 00000KT 10SM CLR 11/09 A2998 RMK AO2 SLP151
T01060094





000
SAUS44 KLZK 240655
MTRMWT
METAR KMWT 240653Z AUTO 00000KT 10SM CLR 11/09 A2998 RMK AO2 SLP151
T01060094





000
SAUS44 KLZK 240554
MTRMWT
METAR KMWT 240553Z AUTO 00000KT 10SM FEW022 11/09 A2998 RMK AO2
SLP152 T01110089 10150 20106 401610106 55005





000
SAUS44 KLZK 240554
MTRMWT
METAR KMWT 240553Z AUTO 00000KT 10SM FEW022 11/09 A2998 RMK AO2
SLP152 T01110089 10150 20106 401610106 55005





000
SAUS44 KLZK 240454
MTRMWT
METAR KMWT 240453Z AUTO 00000KT 10SM CLR 12/09 A2998 RMK AO2 SLP151
T01170089





000
SAUS44 KLZK 240454
MTRMWT
METAR KMWT 240453Z AUTO 00000KT 10SM CLR 12/09 A2998 RMK AO2 SLP151
T01170089





000
SAUS44 KLZK 240354
MTRMWT
METAR KMWT 240353Z AUTO 00000KT 10SM OVC047 13/09 A2999 RMK AO2
SLP155 T01280089





000
SAUS44 KLZK 240354
MTRMWT
METAR KMWT 240353Z AUTO 00000KT 10SM OVC047 13/09 A2999 RMK AO2
SLP155 T01280089





000
SAUS44 KLZK 240254
MTRMWT
METAR KMWT 240253Z AUTO 14003KT 10SM BKN046 13/09 A3000 RMK AO2
SLP158 T01280089 53002





000
SAUS44 KLZK 240154
MTRMWT
METAR KMWT 240153Z AUTO 00000KT 10SM CLR 13/09 A2999 RMK AO2 SLP157
T01330094





000
SAUS44 KLZK 240154
MTRMWT
METAR KMWT 240153Z AUTO 00000KT 10SM CLR 13/09 A2999 RMK AO2 SLP157
T01330094





000
SAUS44 KLZK 240142
MTRMWT
SPECI KMWT 240141Z AUTO 11003KT 10SM SCT022 13/09 A2999 RMK AO2
T01330094





000
SAUS44 KLZK 240142
MTRMWT
SPECI KMWT 240141Z AUTO 11003KT 10SM SCT022 13/09 A2999 RMK AO2
T01330094





000
SAUS44 KLZK 240054
MTRMWT
METAR KMWT 240053Z AUTO 00000KT 10SM OVC023 14/11 A2999 RMK AO2
SLP155 T01440106





000
SAUS44 KLZK 240054
MTRMWT
METAR KMWT 240053Z AUTO 00000KT 10SM OVC023 14/11 A2999 RMK AO2
SLP155 T01440106





    US Dept of Commerce
    National Oceanic and Atmospheric Administration
    National Weather Service
    1325 East West Highway
    Silver Spring, MD 20910
    Page Author: NWS Internet Services Team
Disclaimer
Information Quality
Credits
Glossary
Privacy Policy
Freedom of Information Act (FOIA)
About Us
Career Opportunities